Time;durP1;ratioP1;P1;durP2;ratioP2;P2;SDS_P1;SDS_P2;PMS_P1;PMS_P2;Temp;Humidity;BMP_temperature;BMP_pressure;BME280_temperature;BME280_humidity;BME280_pressure;Samples;Min_cycle;Max_cycle;Signal;HPM_P1;HPM_P2
2023/01/07 00:01:25;;;;;;;;;;;16.00;66.20;;;;;;5018733;28;19916;-88
2023/01/07 00:03:51;;;;;;;;;;;16.10;66.30;;;;;;5013729;28;20333;-89
2023/01/07 00:06:24;;;;;;;;;;;16.10;66.20;;;;;;5012137;28;19917;-87
2023/01/07 00:08:50;;;;;;;;;;;16.20;66.00;;;;;;5023881;28;19924;-88
2023/01/07 00:11:20;;;;;;;;;;;16.20;66.10;;;;;;5031830;28;19932;-86
2023/01/07 00:13:47;;;;;;;;;;;16.20;66.20;;;;;;5030737;28;20376;-88
2023/01/07 00:16:14;;;;;;;;;;;16.30;66.00;;;;;;5031412;28;19987;-87
2023/01/07 00:18:40;;;;;;;;;;;16.30;66.10;;;;;;5033011;28;20052;-89
2023/01/07 00:21:06;;;;;;;;;;;16.30;66.00;;;;;;5030595;28;19995;-90
2023/01/07 00:23:33;;;;;;;;;;;16.30;65.90;;;;;;5031475;28;20284;-90
2023/01/07 00:26:00;;;;;;;;;;;16.30;65.80;;;;;;5040520;28;19917;-90
2023/01/07 00:28:25;;;;;;;;;;;16.30;65.90;;;;;;5033572;28;19920;-87
2023/01/07 00:30:51;;;;;;;;;;;16.30;65.90;;;;;;5035129;28;19917;-89
2023/01/07 00:33:17;;;;;;;;;;;16.30;65.90;;;;;;5049071;28;19913;-89
2023/01/07 00:35:44;;;;;;;;;;;16.30;65.90;;;;;;5020477;28;20011;-88
2023/01/07 00:38:09;;;;;;;;;;;16.20;66.00;;;;;;5021518;28;20396;-88
2023/01/07 00:40:35;;;;;;;;;;;16.20;65.90;;;;;;5018809;28;19924;-89
2023/01/07 00:43:00;;;;;;;;;;;16.20;65.90;;;;;;5033233;28;19913;-88
2023/01/07 00:45:33;;;;;;;;;;;16.20;65.90;;;;;;5024330;28;19918;-89
2023/01/07 00:47:59;;;;;;;;;;;16.20;65.80;;;;;;5026197;28;20409;-89
2023/01/07 00:50:34;;;;;;;;;;;16.30;65.80;;;;;;5027720;28;20219;-88
2023/01/07 00:53:00;;;;;;;;;;;16.20;65.80;;;;;;5011307;28;19910;-87
2023/01/07 00:55:26;;;;;;;;;;;16.20;65.80;;;;;;5009989;28;19921;-86
2023/01/07 00:57:52;;;;;;;;;;;16.20;66.00;;;;;;5026810;28;20257;-90
2023/01/07 01:00:18;;;;;;;;;;;16.10;66.10;;;;;;5010109;28;20387;-87
2023/01/07 01:02:44;;;;;;;;;;;16.10;66.10;;;;;;5012675;28;19920;-88
2023/01/07 01:05:17;;;;;;;;;;;16.10;66.20;;;;;;5010497;28;19992;-89
2023/01/07 01:07:42;;;;;;;;;;;16.10;66.30;;;;;;5061534;23;20485;-86
2023/01/07 01:10:09;;;;;;;;;;;16.10;66.20;;;;;;5031645;28;19913;-90
2023/01/07 01:12:35;;;;;;;;;;;16.00;66.20;;;;;;5014058;28;20010;-86
2023/01/07 01:15:02;;;;;;;;;;;16.10;66.20;;;;;;5013008;28;19999;-87
2023/01/07 01:17:27;;;;;;;;;;;16.00;66.30;;;;;;5030559;28;20284;-89
2023/01/07 01:19:53;;;;;;;;;;;15.90;66.40;;;;;;5022151;28;19913;-89
2023/01/07 01:22:18;;;;;;;;;;;16.00;66.40;;;;;;5050783;28;19917;-87
2023/01/07 01:24:43;;;;;;;;;;;16.00;66.40;;;;;;5031346;28;19917;-87
2023/01/07 01:27:09;;;;;;;;;;;16.00;66.40;;;;;;5016718;28;19917;-87
2023/01/07 01:29:34;;;;;;;;;;;16.00;66.30;;;;;;5011523;28;19925;-89
2023/01/07 01:32:00;;;;;;;;;;;16.10;66.20;;;;;;5001504;28;19928;-89
2023/01/07 01:34:26;;;;;;;;;;;16.10;66.20;;;;;;5029597;28;19929;-90
2023/01/07 01:36:51;;;;;;;;;;;16.10;66.20;;;;;;5030711;28;20400;-88
2023/01/07 01:39:19;;;;;;;;;;;16.10;66.20;;;;;;5015397;28;19943;-88
2023/01/07 01:41:45;;;;;;;;;;;16.10;66.20;;;;;;5030349;28;19947;-89
2023/01/07 01:44:29;;;;;;;;;;;16.10;65.90;;;;;;5021739;28;19970;-88
2023/01/07 01:46:55;;;;;;;;;;;16.10;66.00;;;;;;5010609;28;20327;-88
2023/01/07 01:49:30;;;;;;;;;;;16.00;66.20;;;;;;4993408;28;19917;-88
2023/01/07 01:52:04;;;;;;;;;;;16.00;66.00;;;;;;4994408;28;20016;-88
2023/01/07 01:54:30;;;;;;;;;;;15.90;66.30;;;;;;5010613;28;19917;-87
2023/01/07 01:56:56;;;;;;;;;;;16.00;66.30;;;;;;5025352;28;19929;-90
2023/01/07 01:59:24;;;;;;;;;;;16.00;66.10;;;;;;5050939;28;19908;-87
2023/01/07 02:01:49;;;;;;;;;;;16.00;66.10;;;;;;5041314;28;19918;-85
2023/01/07 02:04:17;;;;;;;;;;;16.00;66.30;;;;;;4993655;28;19916;-90
2023/01/07 02:06:58;;;;;;;;;;;16.00;66.40;;;;;;4992701;28;20041;-87
2023/01/07 02:09:23;;;;;;;;;;;15.90;66.30;;;;;;4993142;28;20009;-88
2023/01/07 02:12:07;;;;;;;;;;;15.90;66.30;;;;;;5010386;28;20504;-88
2023/01/07 02:14:35;;;;;;;;;;;16.00;66.30;;;;;;5023545;28;19920;-88
2023/01/07 02:17:10;;;;;;;;;;;15.90;66.40;;;;;;5003609;28;19933;-88
2023/01/07 02:19:54;;;;;;;;;;;15.90;66.50;;;;;;5012730;28;20620;-88
2023/01/07 02:22:39;;;;;;;;;;;15.90;66.30;;;;;;5013455;28;20266;-88
2023/01/07 02:25:23;;;;;;;;;;;16.00;66.30;;;;;;5017587;28;19913;-86
2023/01/07 02:28:10;;;;;;;;;;;16.00;66.20;;;;;;5008367;28;19918;-87
2023/01/07 02:30:40;;;;;;;;;;;16.00;66.30;;;;;;5025553;28;19945;-88
2023/01/07 02:33:12;;;;;;;;;;;16.00;66.40;;;;;;5010605;28;19944;-89
2023/01/07 02:35:40;;;;;;;;;;;16.00;66.30;;;;;;5013742;28;19920;-90
2023/01/07 02:38:18;;;;;;;;;;;16.00;66.30;;;;;;5012454;28;19925;-90
2023/01/07 02:41:02;;;;;;;;;;;15.90;66.30;;;;;;5029813;28;19953;-87
2023/01/07 02:43:40;;;;;;;;;;;15.90;66.20;;;;;;5019599;28;20337;-87
2023/01/07 02:46:15;;;;;;;;;;;15.90;66.40;;;;;;5011507;28;19909;-86
2023/01/07 02:48:40;;;;;;;;;;;15.80;66.40;;;;;;5014489;28;19909;-88
2023/01/07 02:51:06;;;;;;;;;;;15.90;66.30;;;;;;4996786;28;19956;-87
2023/01/07 02:53:32;;;;;;;;;;;15.90;66.20;;;;;;5002649;28;19913;-89
2023/01/07 02:56:06;;;;;;;;;;;15.80;66.00;;;;;;5013540;28;19951;-87
2023/01/07 02:58:44;;;;;;;;;;;15.80;65.90;;;;;;4996227;28;20841;-87
2023/01/07 03:01:23;;;;;;;;;;;15.70;65.80;;;;;;5013533;28;20341;-86
2023/01/07 03:03:56;;;;;;;;;;;15.60;65.70;;;;;;4997341;28;19920;-87
2023/01/07 03:06:21;;;;;;;;;;;15.60;65.80;;;;;;5013056;28;20013;-88
2023/01/07 03:09:03;;;;;;;;;;;15.50;65.70;;;;;;4995426;28;20383;-89
2023/01/07 03:11:48;;;;;;;;;;;15.50;65.70;;;;;;5013127;28;19921;-89
2023/01/07 03:14:17;;;;;;;;;;;15.50;65.80;;;;;;5002444;28;19920;-87
2023/01/07 03:16:46;;;;;;;;;;;15.50;65.90;;;;;;5013151;28;19925;-87
2023/01/07 03:19:13;;;;;;;;;;;15.50;65.90;;;;;;5013227;28;19914;-89
2023/01/07 03:21:38;;;;;;;;;;;15.60;66.20;;;;;;5014576;28;19913;-87
2023/01/07 03:24:05;;;;;;;;;;;15.60;66.00;;;;;;4995305;28;19976;-89
2023/01/07 03:26:32;;;;;;;;;;;15.60;66.10;;;;;;4996691;28;20408;-88
2023/01/07 03:28:58;;;;;;;;;;;15.70;66.00;;;;;;5014338;28;20365;-87
2023/01/07 03:31:24;;;;;;;;;;;15.70;66.30;;;;;;5006169;28;20012;-88
2023/01/07 03:33:55;;;;;;;;;;;15.70;66.30;;;;;;5032328;28;19909;-87
2023/01/07 03:36:23;;;;;;;;;;;15.70;66.10;;;;;;5032817;28;19925;-86
2023/01/07 03:38:49;;;;;;;;;;;15.80;65.90;;;;;;5032386;28;20249;-87
2023/01/07 03:42:38;;;;;;;;;;;15.80;65.80;;;;;;5032574;28;19909;-89
2023/01/07 03:44:01;;;;;;;;;;;15.70;65.70;;;;;;5025024;28;19952;-88
2023/01/07 03:46:27;;;;;;;;;;;15.70;65.70;;;;;;5014937;28;19956;-88
2023/01/07 03:48:52;;;;;;;;;;;15.60;65.50;;;;;;5033290;28;19917;-88
2023/01/07 03:51:17;;;;;;;;;;;15.60;65.20;;;;;;5033181;28;20661;-88
2023/01/07 03:53:43;;;;;;;;;;;15.50;65.30;;;;;;5033163;28;19909;-89
2023/01/07 03:56:08;;;;;;;;;;;15.50;65.30;;;;;;5013907;28;20268;-88
2023/01/07 03:58:34;;;;;;;;;;;15.40;65.30;;;;;;5011901;28;19913;-86
2023/01/07 04:00:59;;;;;;;;;;;15.40;65.40;;;;;;5012848;28;19909;-89
2023/01/07 04:03:25;;;;;;;;;;;15.30;65.30;;;;;;4995975;28;20012;-86
2023/01/07 04:05:50;;;;;;;;;;;15.30;65.40;;;;;;4994451;28;19910;-87
2023/01/07 04:08:15;;;;;;;;;;;15.30;65.40;;;;;;5011903;28;19921;-89
2023/01/07 04:10:41;;;;;;;;;;;15.20;65.50;;;;;;4994656;28;20446;-88
2023/01/07 04:13:06;;;;;;;;;;;15.20;65.50;;;;;;5013905;28;19924;-88
2023/01/07 04:15:32;;;;;;;;;;;15.10;65.60;;;;;;5012465;28;19955;-90
2023/01/07 04:17:57;;;;;;;;;;;15.20;65.50;;;;;;5013939;28;19964;-88
2023/01/07 04:20:23;;;;;;;;;;;15.10;65.40;;;;;;5025660;28;19948;-89
2023/01/07 04:22:48;;;;;;;;;;;15.10;65.50;;;;;;5015884;28;19960;-88
2023/01/07 04:25:14;;;;;;;;;;;15.10;65.20;;;;;;5032386;28;19909;-89
2023/01/07 04:27:39;;;;;;;;;;;15.00;65.20;;;;;;5032384;28;19921;-86
2023/01/07 04:30:05;;;;;;;;;;;15.00;65.20;;;;;;5014854;28;19913;-87
2023/01/07 04:32:30;;;;;;;;;;;14.90;65.10;;;;;;5031543;28;19921;-88
2023/01/07 04:34:56;;;;;;;;;;;14.90;65.10;;;;;;4997685;28;19916;-89
2023/01/07 04:37:21;;;;;;;;;;;14.90;65.10;;;;;;4994667;28;20534;-89
2023/01/07 04:39:47;;;;;;;;;;;14.80;65.10;;;;;;5025042;28;20303;-89
2023/01/07 04:42:12;;;;;;;;;;;14.80;65.10;;;;;;5013378;28;19921;-88
2023/01/07 04:44:37;;;;;;;;;;;14.70;65.10;;;;;;5031674;28;19909;-89
2023/01/07 04:47:03;;;;;;;;;;;14.70;65.20;;;;;;5013840;28;20032;-87
2023/01/07 04:49:28;;;;;;;;;;;14.70;65.10;;;;;;5014283;28;19916;-89
2023/01/07 04:51:54;;;;;;;;;;;14.70;65.30;;;;;;5021100;28;20396;-88
2023/01/07 04:54:19;;;;;;;;;;;14.70;65.10;;;;;;5006065;28;20000;-88
2023/01/07 04:56:45;;;;;;;;;;;14.70;65.20;;;;;;5023352;28;19955;-89
2023/01/07 04:59:10;;;;;;;;;;;14.60;65.20;;;;;;5020256;28;20495;-90
2023/01/07 05:01:36;;;;;;;;;;;14.60;65.30;;;;;;5014072;28;19971;-88
2023/01/07 05:04:01;;;;;;;;;;;14.60;65.20;;;;;;5017025;28;20348;-89
2023/01/07 05:06:27;;;;;;;;;;;14.60;65.30;;;;;;5007508;28;19917;-88
2023/01/07 05:08:52;;;;;;;;;;;14.60;65.50;;;;;;5001533;28;19914;-88
2023/01/07 05:11:20;;;;;;;;;;;14.60;65.30;;;;;;4993649;28;20368;-89
2023/01/07 05:13:46;;;;;;;;;;;14.60;65.10;;;;;;5020961;28;20309;-89
2023/01/07 05:16:12;;;;;;;;;;;14.60;65.10;;;;;;4995377;28;19921;-87
2023/01/07 05:18:37;;;;;;;;;;;14.60;65.00;;;;;;5015332;28;19913;-89
2023/01/07 05:21:03;;;;;;;;;;;14.60;64.90;;;;;;5014383;28;19910;-87
2023/01/07 05:23:28;;;;;;;;;;;14.60;64.90;;;;;;5008865;28;19999;-88
2023/01/07 05:25:54;;;;;;;;;;;14.60;64.70;;;;;;5020895;28;19981;-89
2023/01/07 05:28:19;;;;;;;;;;;14.50;64.70;;;;;;5011877;28;19917;-89
2023/01/07 05:30:45;;;;;;;;;;;14.50;64.90;;;;;;5003941;28;20364;-88
2023/01/07 05:33:11;;;;;;;;;;;14.50;64.70;;;;;;5030708;28;19945;-90
2023/01/07 05:35:36;;;;;;;;;;;14.50;64.60;;;;;;5013278;28;20718;-88
2023/01/07 05:38:04;;;;;;;;;;;14.50;64.60;;;;;;5012930;28;21236;-88
2023/01/07 05:40:29;;;;;;;;;;;14.40;64.90;;;;;;5030185;28;19910;-86
2023/01/07 05:42:55;;;;;;;;;;;14.50;65.00;;;;;;5025094;28;19917;-88
2023/01/07 05:45:20;;;;;;;;;;;14.50;64.90;;;;;;5012967;28;19967;-88
2023/01/07 05:47:46;;;;;;;;;;;14.40;64.90;;;;;;5031921;28;19952;-88
2023/01/07 05:50:11;;;;;;;;;;;14.50;64.90;;;;;;5030577;28;19916;-88
2023/01/07 05:52:37;;;;;;;;;;;14.50;64.70;;;;;;5014583;28;20541;-90
2023/01/07 05:55:03;;;;;;;;;;;14.50;64.60;;;;;;5031916;28;19964;-89
2023/01/07 05:57:29;;;;;;;;;;;14.40;64.50;;;;;;5018290;28;19925;-89
2023/01/07 05:59:54;;;;;;;;;;;14.40;64.30;;;;;;5011027;28;19992;-86
2023/01/07 06:02:19;;;;;;;;;;;14.40;64.40;;;;;;5010110;28;19936;-89
2023/01/07 06:04:45;;;;;;;;;;;14.40;64.40;;;;;;4993361;28;19909;-89
2023/01/07 06:07:10;;;;;;;;;;;14.30;64.40;;;;;;5010148;28;19922;-88
2023/01/07 06:09:36;;;;;;;;;;;14.30;64.40;;;;;;5010777;28;19910;-87
2023/01/07 06:12:01;;;;;;;;;;;14.30;64.30;;;;;;5025563;28;19917;-88
2023/01/07 06:14:27;;;;;;;;;;;14.30;64.30;;;;;;5028833;28;19914;-89
2023/01/07 06:16:52;;;;;;;;;;;14.20;64.40;;;;;;5021175;28;20700;-89
2023/01/07 06:19:18;;;;;;;;;;;14.20;64.50;;;;;;5016949;28;20435;-89
2023/01/07 06:21:43;;;;;;;;;;;14.20;64.50;;;;;;5020511;28;19917;-88
2023/01/07 06:24:09;;;;;;;;;;;14.30;64.70;;;;;;5015390;28;19917;-87
2023/01/07 06:26:34;;;;;;;;;;;14.20;64.90;;;;;;5022328;28;20037;-86
2023/01/07 06:29:00;;;;;;;;;;;14.20;65.00;;;;;;5034432;28;20044;-88
2023/01/07 06:31:25;;;;;;;;;;;14.30;65.20;;;;;;5006247;28;20392;-89
2023/01/07 06:33:51;;;;;;;;;;;14.30;65.40;;;;;;5018705;28;19916;-88
2023/01/07 06:36:16;;;;;;;;;;;14.40;65.30;;;;;;5033314;28;20372;-89
2023/01/07 06:38:41;;;;;;;;;;;14.50;65.40;;;;;;5015817;28;20291;-88
2023/01/07 06:41:07;;;;;;;;;;;14.50;65.30;;;;;;5033882;28;19913;-87
2023/01/07 06:43:33;;;;;;;;;;;14.50;65.20;;;;;;5023266;28;20008;-88
2023/01/07 06:45:58;;;;;;;;;;;14.50;65.20;;;;;;4998973;28;19917;-88
2023/01/07 06:48:24;;;;;;;;;;;14.50;65.10;;;;;;5014218;28;19968;-88
2023/01/07 06:50:49;;;;;;;;;;;14.60;65.10;;;;;;4997840;28;20442;-90
2023/01/07 06:53:14;;;;;;;;;;;14.60;65.10;;;;;;4999233;28;20000;-89
2023/01/07 06:55:40;;;;;;;;;;;14.70;65.20;;;;;;5015896;28;19910;-89
2023/01/07 06:58:05;;;;;;;;;;;14.80;65.30;;;;;;5030429;28;20429;-87
2023/01/07 07:00:31;;;;;;;;;;;14.80;65.10;;;;;;5036097;28;19943;-89
2023/01/07 07:02:56;;;;;;;;;;;14.90;65.10;;;;;;5036295;28;19971;-87
2023/01/07 07:05:22;;;;;;;;;;;15.00;65.00;;;;;;5036520;28;19909;-89
2023/01/07 07:07:47;;;;;;;;;;;15.00;64.90;;;;;;5045280;28;19921;-87
2023/01/07 07:10:13;;;;;;;;;;;15.00;64.90;;;;;;4996226;28;20382;-89
2023/01/07 07:12:39;;;;;;;;;;;15.00;64.90;;;;;;5014362;28;20502;-88
2023/01/07 07:15:05;;;;;;;;;;;14.90;64.90;;;;;;5010334;28;19921;-86
2023/01/07 07:17:30;;;;;;;;;;;14.90;64.80;;;;;;5016117;28;20004;-89
2023/01/07 07:19:56;;;;;;;;;;;14.90;64.80;;;;;;5006085;28;19909;-86
2023/01/07 07:22:21;;;;;;;;;;;14.90;64.60;;;;;;5014177;28;19921;-90
2023/01/07 07:24:47;;;;;;;;;;;14.80;64.30;;;;;;4999786;28;19909;-87
2023/01/07 07:27:12;;;;;;;;;;;14.70;64.40;;;;;;5013455;28;19921;-88
2023/01/07 07:29:38;;;;;;;;;;;14.70;64.30;;;;;;5017022;28;20310;-88
2023/01/07 07:32:04;;;;;;;;;;;14.70;64.20;;;;;;5017153;28;19987;-89
2023/01/07 07:34:29;;;;;;;;;;;14.60;64.30;;;;;;5004182;28;19924;-88
2023/01/07 07:36:54;;;;;;;;;;;14.60;64.60;;;;;;5033238;28;20016;-88
2023/01/07 07:39:20;;;;;;;;;;;14.60;64.60;;;;;;5019838;28;20392;-89
2023/01/07 07:41:45;;;;;;;;;;;14.60;64.70;;;;;;4999132;28;19975;-87
2023/01/07 07:44:11;;;;;;;;;;;14.70;65.00;;;;;;5015028;28;20012;-87
2023/01/07 07:46:36;;;;;;;;;;;14.70;64.90;;;;;;5032532;28;19917;-88
2023/01/07 07:49:02;;;;;;;;;;;14.80;65.20;;;;;;5033867;28;19955;-88
2023/01/07 07:51:27;;;;;;;;;;;14.80;65.30;;;;;;5001874;28;19918;-88
2023/01/07 07:53:53;;;;;;;;;;;15.00;65.60;;;;;;5014056;28;20036;-89
2023/01/07 07:56:18;;;;;;;;;;;15.10;65.70;;;;;;5017435;28;20375;-89
2023/01/07 07:58:43;;;;;;;;;;;15.10;65.50;;;;;;5030999;28;19913;-87
2023/01/07 08:01:09;;;;;;;;;;;15.20;65.60;;;;;;5013147;28;19941;-88
2023/01/07 08:03:35;;;;;;;;;;;15.30;65.60;;;;;;5014661;28;19951;-86
2023/01/07 08:06:01;;;;;;;;;;;15.40;65.40;;;;;;5012644;28;20300;-89
2023/01/07 08:08:27;;;;;;;;;;;15.50;65.30;;;;;;5007951;28;19925;-88
2023/01/07 08:10:55;;;;;;;;;;;15.60;65.30;;;;;;5000563;28;19920;-87
2023/01/07 08:13:21;;;;;;;;;;;15.70;65.50;;;;;;4999913;28;19924;-88
2023/01/07 08:15:47;;;;;;;;;;;15.70;65.30;;;;;;5013010;28;19913;-87
2023/01/07 08:18:12;;;;;;;;;;;15.70;65.30;;;;;;5012844;28;19982;-88
2023/01/07 08:20:38;;;;;;;;;;;15.80;65.30;;;;;;4995107;28;19909;-89
2023/01/07 08:23:04;;;;;;;;;;;15.90;65.30;;;;;;5015475;28;19940;-89
2023/01/07 08:25:31;;;;;;;;;;;15.90;65.40;;;;;;5015270;28;19917;-88
2023/01/07 08:27:57;;;;;;;;;;;16.00;65.20;;;;;;5033287;28;20268;-88
2023/01/07 08:30:23;;;;;;;;;;;16.10;65.40;;;;;;5020460;28;19913;-87
2023/01/07 08:32:48;;;;;;;;;;;16.00;65.30;;;;;;5028103;28;19918;-87
2023/01/07 08:35:15;;;;;;;;;;;16.10;65.20;;;;;;5025296;28;19917;-87
2023/01/07 08:37:41;;;;;;;;;;;16.20;65.10;;;;;;5018908;28;19925;-85
2023/01/07 08:40:07;;;;;;;;;;;16.20;65.00;;;;;;5026202;28;19909;-87
2023/01/07 08:42:32;;;;;;;;;;;16.30;65.00;;;;;;4995716;28;19918;-87
2023/01/07 08:44:58;;;;;;;;;;;16.30;65.10;;;;;;5011598;28;19968;-88
2023/01/07 08:47:26;;;;;;;;;;;16.40;65.10;;;;;;4995410;28;19921;-88
2023/01/07 08:49:55;;;;;;;;;;;16.50;65.00;;;;;;5017789;28;19916;-89
2023/01/07 08:52:21;;;;;;;;;;;16.50;64.90;;;;;;5023710;28;20360;-89
2023/01/07 08:54:47;;;;;;;;;;;16.50;64.80;;;;;;5011659;28;19917;-89
2023/01/07 08:57:12;;;;;;;;;;;16.60;64.80;;;;;;5017955;28;19936;-89
2023/01/07 08:59:39;;;;;;;;;;;16.70;64.80;;;;;;5031861;28;19929;-87
2023/01/07 09:02:23;;;;;;;;;;;16.70;64.90;;;;;;5014303;28;20355;-88
2023/01/07 09:04:48;;;;;;;;;;;16.80;64.70;;;;;;5013178;28;19943;-89
2023/01/07 09:07:14;;;;;;;;;;;16.80;64.80;;;;;;5016070;28;19921;-88
2023/01/07 09:09:41;;;;;;;;;;;16.80;64.70;;;;;;5032510;28;19940;-88
2023/01/07 09:12:07;;;;;;;;;;;16.80;64.80;;;;;;5030557;28;20321;-88
2023/01/07 09:14:33;;;;;;;;;;;16.90;64.70;;;;;;5030937;28;19928;-88
2023/01/07 09:16:58;;;;;;;;;;;17.00;64.70;;;;;;5013561;28;20486;-87
2023/01/07 09:19:24;;;;;;;;;;;17.00;64.70;;;;;;5031118;28;19955;-87
2023/01/07 09:21:50;;;;;;;;;;;17.10;64.90;;;;;;5031523;28;19944;-87
2023/01/07 09:24:16;;;;;;;;;;;17.10;64.60;;;;;;5005839;28;19921;-87
2023/01/07 09:26:42;;;;;;;;;;;17.20;64.50;;;;;;5030732;28;19921;-88
2023/01/07 09:29:08;;;;;;;;;;;17.20;64.60;;;;;;5022939;28;19910;-88
2023/01/07 09:31:33;;;;;;;;;;;17.30;64.60;;;;;;5021583;28;19970;-89
2023/01/07 09:33:59;;;;;;;;;;;17.30;64.80;;;;;;5031577;28;19913;-88
2023/01/07 09:36:25;;;;;;;;;;;17.40;64.70;;;;;;5029038;28;19918;-87
2023/01/07 09:38:51;;;;;;;;;;;17.50;64.70;;;;;;5031859;28;20287;-89
2023/01/07 09:41:17;;;;;;;;;;;17.60;64.60;;;;;;5031886;28;20344;-89
2023/01/07 09:43:42;;;;;;;;;;;17.70;64.60;;;;;;5016585;28;19925;-89
2023/01/07 09:46:08;;;;;;;;;;;17.70;64.60;;;;;;5011910;28;20427;-89
2023/01/07 09:48:46;;;;;;;;;;;17.70;64.10;;;;;;5033506;28;19956;-90
2023/01/07 09:51:11;;;;;;;;;;;17.70;63.80;;;;;;5030201;28;19964;-89
2023/01/07 09:53:42;;;;;;;;;;;17.70;63.90;;;;;;5003575;28;20365;-90
2023/01/07 09:56:14;;;;;;;;;;;17.70;63.70;;;;;;5018811;28;20000;-88
2023/01/07 09:58:41;;;;;;;;;;;17.60;63.60;;;;;;5013771;28;19925;-89
2023/01/07 10:01:19;;;;;;;;;;;17.60;63.80;;;;;;5004059;28;19921;-88
2023/01/07 10:04:01;;;;;;;;;;;17.50;63.50;;;;;;5013718;28;20513;-88
2023/01/07 10:06:35;;;;;;;;;;;17.50;63.60;;;;;;5000686;28;19921;-88
2023/01/07 10:09:03;;;;;;;;;;;17.50;63.70;;;;;;5001133;28;19909;-90
2023/01/07 10:11:40;;;;;;;;;;;17.40;63.90;;;;;;5007890;28;19922;-88
2023/01/07 10:14:24;;;;;;;;;;;17.40;63.80;;;;;;5015050;28;19947;-90
2023/01/07 10:16:56;;;;;;;;;;;17.40;63.80;;;;;;5000527;28;19926;-88
2023/01/07 10:19:37;;;;;;;;;;;17.40;63.90;;;;;;5011932;28;19945;-88
2023/01/07 10:22:15;;;;;;;;;;;17.40;63.80;;;;;;4999485;28;19925;-87
2023/01/07 10:24:43;;;;;;;;;;;17.50;63.90;;;;;;5004119;28;19952;-87
2023/01/07 10:27:11;;;;;;;;;;;17.50;63.80;;;;;;5003904;28;20400;-88
2023/01/07 10:29:41;;;;;;;;;;;17.50;63.90;;;;;;5010885;28;19972;-90
2023/01/07 10:32:12;;;;;;;;;;;17.50;63.90;;;;;;5014745;28;19925;-89
2023/01/07 10:34:42;;;;;;;;;;;17.60;64.00;;;;;;5022860;28;19949;-89
2023/01/07 10:37:13;;;;;;;;;;;17.50;63.60;;;;;;5017568;28;19925;-88
2023/01/07 10:39:44;;;;;;;;;;;17.50;63.70;;;;;;5021683;28;19913;-89
2023/01/07 10:42:09;;;;;;;;;;;17.60;63.70;;;;;;5000637;28;19922;-88
2023/01/07 10:44:56;;;;;;;;;;;17.60;63.60;;;;;;5019709;28;19913;-90
2023/01/07 10:47:27;;;;;;;;;;;17.70;63.90;;;;;;4998046;28;20076;-89
2023/01/07 10:49:59;;;;;;;;;;;17.80;63.90;;;;;;5001359;28;19918;-89
2023/01/07 10:52:38;;;;;;;;;;;17.80;64.00;;;;;;4998286;28;19929;-89
2023/01/07 10:55:13;;;;;;;;;;;17.80;63.50;;;;;;5014107;28;19917;-88
2023/01/07 10:57:39;;;;;;;;;;;17.80;63.40;;;;;;4997544;28;20340;-90
2023/01/07 11:00:06;;;;;;;;;;;17.80;63.30;;;;;;5000983;28;19920;-88
2023/01/07 11:02:32;;;;;;;;;;;17.80;63.00;;;;;;5015251;28;20019;-89
2023/01/07 11:04:58;;;;;;;;;;;17.80;63.30;;;;;;5009314;28;20428;-88
2023/01/07 11:07:23;;;;;;;;;;;17.90;63.40;;;;;;5002708;28;19959;-90
2023/01/07 11:09:49;;;;;;;;;;;17.90;63.20;;;;;;5026487;28;20165;-89
2023/01/07 11:12:36;;;;;;;;;;;17.90;63.20;;;;;;5027689;28;19917;-87
2023/01/07 11:15:04;;;;;;;;;;;17.80;63.20;;;;;;5002886;28;19920;-87
2023/01/07 11:17:35;;;;;;;;;;;17.80;63.10;;;;;;5020458;28;19932;-88
2023/01/07 11:20:00;;;;;;;;;;;17.90;62.90;;;;;;5027473;28;20332;-87
2023/01/07 11:22:26;;;;;;;;;;;17.90;63.20;;;;;;5021475;28;19971;-88
2023/01/07 11:24:56;;;;;;;;;;;18.00;63.50;;;;;;5003038;28;19968;-89
2023/01/07 11:27:26;;;;;;;;;;;18.00;63.50;;;;;;5021350;28;19987;-89
2023/01/07 11:29:57;;;;;;;;;;;18.10;63.20;;;;;;5002540;28;19913;-88
2023/01/07 11:32:27;;;;;;;;;;;18.10;63.10;;;;;;5004437;28;19943;-89
2023/01/07 11:35:00;;;;;;;;;;;18.10;63.00;;;;;;5003936;28;19947;-88
2023/01/07 11:37:30;;;;;;;;;;;18.20;63.40;;;;;;5014829;28;19936;-89
2023/01/07 11:39:59;;;;;;;;;;;18.20;62.90;;;;;;5021391;28;20392;-89
2023/01/07 11:42:37;;;;;;;;;;;18.20;62.60;;;;;;5017340;28;19971;-89
2023/01/07 11:45:13;;;;;;;;;;;18.30;63.00;;;;;;5028039;28;20501;-88
2023/01/07 11:47:44;;;;;;;;;;;18.30;62.40;;;;;;5015292;28;19932;-86
2023/01/07 11:50:19;;;;;;;;;;;18.30;62.00;;;;;;5000260;28;19924;-88
2023/01/07 11:53:17;;;;;;;;;;;18.30;62.30;;;;;;5007492;28;19975;-89
2023/01/07 11:55:55;;;;;;;;;;;18.30;61.60;;;;;;4969462;28;19922;-89
2023/01/07 11:58:20;;;;;;;;;;;18.30;61.10;;;;;;5002141;28;20331;-87
2023/01/07 12:01:00;;;;;;;;;;;18.30;61.20;;;;;;5006176;28;20063;-90
2023/01/07 12:03:26;;;;;;;;;;;18.30;61.10;;;;;;4995581;28;19929;-87
2023/01/07 12:05:55;;;;;;;;;;;18.30;61.30;;;;;;5012445;28;20388;-88
2023/01/07 12:08:21;;;;;;;;;;;18.30;61.70;;;;;;5008645;28;19929;-89
2023/01/07 12:10:52;;;;;;;;;;;18.20;60.80;;;;;;5010720;28;20505;-88
2023/01/07 12:13:20;;;;;;;;;;;18.20;61.40;;;;;;5014708;28;20291;-89
2023/01/07 12:16:00;;;;;;;;;;;18.30;61.70;;;;;;5001015;28;19968;-89
2023/01/07 12:18:26;;;;;;;;;;;18.30;62.00;;;;;;4990935;28;19929;-88
2023/01/07 12:21:10;;;;;;;;;;;18.30;61.90;;;;;;5006766;28;19967;-89
2023/01/07 12:23:54;;;;;;;;;;;18.30;61.70;;;;;;5029809;28;19928;-88
2023/01/07 12:26:21;;;;;;;;;;;18.40;61.60;;;;;;5002022;28;19979;-88
2023/01/07 12:29:11;;;;;;;;;;;18.40;62.20;;;;;;4991343;28;19909;-87
2023/01/07 12:31:42;;;;;;;;;;;18.40;61.50;;;;;;4992308;28;20012;-86
2023/01/07 12:34:14;;;;;;;;;;;18.40;60.90;;;;;;4995848;28;19917;-88
2023/01/07 12:36:42;;;;;;;;;;;18.40;60.60;;;;;;5009054;28;19925;-88
2023/01/07 12:39:12;;;;;;;;;;;18.30;60.50;;;;;;5008276;28;19917;-89
2023/01/07 12:41:43;;;;;;;;;;;18.30;60.50;;;;;;5020559;28;20008;-89
2023/01/07 12:44:11;;;;;;;;;;;18.40;60.80;;;;;;4995256;28;19924;-90
2023/01/07 12:46:39;;;;;;;;;;;18.40;61.50;;;;;;5014471;28;19921;-90
2023/01/07 12:49:11;;;;;;;;;;;18.40;61.50;;;;;;4997923;28;19987;-90
2023/01/07 12:51:45;;;;;;;;;;;18.50;62.00;;;;;;5018390;28;20379;-87
2023/01/07 12:54:15;;;;;;;;;;;18.50;61.00;;;;;;5008581;28;19920;-88
2023/01/07 12:56:48;;;;;;;;;;;18.50;60.80;;;;;;4995721;28;19929;-90
2023/01/07 12:59:32;;;;;;;;;;;18.50;61.00;;;;;;5000972;28;19921;-90
2023/01/07 13:02:05;;;;;;;;;;;18.40;60.60;;;;;;4996603;28;19976;-88
2023/01/07 13:04:38;;;;;;;;;;;18.40;60.10;;;;;;5005332;28;20336;-89
2023/01/07 13:07:26;;;;;;;;;;;18.30;60.20;;;;;;4997329;28;19926;-89
2023/01/07 13:10:00;;;;;;;;;;;18.30;60.30;;;;;;5009669;28;19992;-92
2023/01/07 13:12:45;;;;;;;;;;;18.20;59.70;;;;;;5007073;28;19921;-90
2023/01/07 13:15:13;;;;;;;;;;;18.10;59.40;;;;;;5020627;28;19929;-90
2023/01/07 13:17:39;;;;;;;;;;;18.00;59.10;;;;;;5020817;28;19983;-90
2023/01/07 13:20:10;;;;;;;;;;;18.00;59.30;;;;;;5021295;28;19964;-91
2023/01/07 13:22:39;;;;;;;;;;;18.10;60.10;;;;;;5020290;28;19925;-90
2023/01/07 13:25:18;;;;;;;;;;;18.10;59.50;;;;;;5017836;28;19928;-88
2023/01/07 13:27:52;;;;;;;;;;;18.10;59.70;;;;;;5022872;28;19925;-91
2023/01/07 13:30:22;;;;;;;;;;;18.10;59.10;;;;;;5017608;28;19917;-91
2023/01/07 13:32:53;;;;;;;;;;;18.00;58.50;;;;;;5012543;28;20042;-90
2023/01/07 13:35:37;;;;;;;;;;;18.00;58.60;;;;;;5024961;28;19944;-90
2023/01/07 13:38:13;;;;;;;;;;;18.00;59.00;;;;;;5008454;28;20182;-91
2023/01/07 13:40:50;;;;;;;;;;;17.80;58.80;;;;;;5019708;28;19922;-90
2023/01/07 13:43:37;;;;;;;;;;;17.80;58.10;;;;;;5022169;28;19917;-91
2023/01/07 13:46:08;;;;;;;;;;;17.70;58.00;;;;;;5020393;28;19921;-88
2023/01/07 13:48:37;;;;;;;;;;;17.60;57.80;;;;;;5021114;28;20028;-88
2023/01/07 13:51:04;;;;;;;;;;;17.70;58.30;;;;;;5020401;28;19964;-90
2023/01/07 13:53:32;;;;;;;;;;;17.70;59.00;;;;;;5011631;28;19926;-91
2023/01/07 13:56:16;;;;;;;;;;;17.70;59.10;;;;;;5021556;28;19921;-89
2023/01/07 13:58:44;;;;;;;;;;;17.60;58.80;;;;;;5023109;28;19929;-89
2023/01/07 14:01:10;;;;;;;;;;;17.60;58.50;;;;;;5021852;28;19917;-88
2023/01/07 14:03:40;;;;;;;;;;;17.70;59.20;;;;;;5021501;28;20391;-90
2023/01/07 14:06:22;;;;;;;;;;;17.70;58.00;;;;;;5015303;28;19948;-90
2023/01/07 14:08:59;;;;;;;;;;;17.60;57.60;;;;;;5013764;28;20323;-90
2023/01/07 14:11:40;;;;;;;;;;;17.70;58.30;;;;;;5007103;28;19921;-89
2023/01/07 14:14:24;;;;;;;;;;;17.80;57.90;;;;;;5023656;28;19920;-89
2023/01/07 14:16:53;;;;;;;;;;;17.80;56.50;;;;;;5017858;28;19933;-90
2023/01/07 14:19:37;;;;;;;;;;;17.70;56.60;;;;;;5021316;28;20297;-90
2023/01/07 14:22:16;;;;;;;;;;;17.70;56.20;;;;;;5010031;28;20522;-91
2023/01/07 14:24:50;;;;;;;;;;;17.70;56.80;;;;;;5023257;28;20407;-90
2023/01/07 14:27:35;;;;;;;;;;;17.70;55.50;;;;;;5013970;28;19921;-90